Time;durP1;ratioP1;P1;durP2;ratioP2;P2;SDS_P1;SDS_P2;PMS_P1;PMS_P2;Temp;Humidity;BMP_temperature;BMP_pressure;BME280_temperature;BME280_humidity;BME280_pressure;Samples;Min_cycle;Max_cycle;Signal;HPM_P1;HPM_P2
2023/01/10 00:01:57;;;;;;;1999.90;999.90;;;;;;;;;;4997068;28;20244;-75
2023/01/10 00:04:27;;;;;;;1999.90;999.90;;;;;;;;;;4998849;28;20221;-74
2023/01/10 00:06:55;;;;;;;1999.90;999.90;;;;;;;;;;5002913;28;20237;-73
2023/01/10 00:09:24;;;;;;;1999.90;999.90;;;;;;;;;;4999030;28;20234;-74
2023/01/10 00:14:38;;;;;;;1999.90;999.90;;;;;;;;;;5015540;28;20229;-74
2023/01/10 00:17:06;;;;;;;1999.90;999.90;;;;;;;;;;5003203;28;20790;-74
2023/01/10 00:19:34;;;;;;;1999.90;999.90;;;;;;;;;;4987258;28;20237;-74
2023/01/10 00:22:17;;;;;;;1999.90;999.90;;;;;;;;;;5005405;28;20234;-74
2023/01/10 00:24:45;;;;;;;1999.90;999.90;;;;;;;;;;5005979;28;20959;-75
2023/01/10 00:27:19;;;;;;;1999.90;999.90;;;;;;;;;;5003168;28;20248;-77
2023/01/10 00:29:47;;;;;;;1999.90;999.90;;;;;;;;;;5005645;28;21076;-74
2023/01/10 00:32:15;;;;;;;1999.90;999.90;;;;;;;;;;5006970;28;20277;-77
2023/01/10 00:34:43;;;;;;;1999.90;999.90;;;;;;;;;;5007684;28;20464;-74
2023/01/10 00:37:11;;;;;;;1999.90;999.90;;;;;;;;;;5007801;28;20225;-74
2023/01/10 00:39:39;;;;;;;1999.90;999.90;;;;;;;;;;5007676;28;20233;-74
2023/01/10 00:44:53;;;;;;;1999.90;999.90;;;;;;;;;;5007896;28;20253;-77
2023/01/10 00:47:21;;;;;;;1999.90;999.90;;;;;;;;;;5007101;28;20258;-74
2023/01/10 00:49:49;;;;;;;1999.90;999.90;;;;;;;;;;5004371;28;20238;-75
2023/01/10 00:52:17;;;;;;;1999.90;999.90;;;;;;;;;;4987961;28;20232;-76
2023/01/10 00:54:44;;;;;;;1999.90;999.90;;;;;;;;;;5000664;28;20313;-74
2023/01/10 00:57:12;;;;;;;1999.90;999.90;;;;;;;;;;5003172;28;20750;-77
2023/01/10 00:59:40;;;;;;;1999.90;999.90;;;;;;;;;;4999045;28;20724;-75
2023/01/10 01:02:09;;;;;;;1999.90;999.90;;;;;;;;;;4999907;28;21459;-74
2023/01/10 01:04:37;;;;;;;1999.90;999.90;;;;;;;;;;4998415;28;20248;-74
2023/01/10 01:07:05;;;;;;;1999.90;999.90;;;;;;;;;;4998715;28;20965;-76
2023/01/10 01:09:33;;;;;;;1999.90;999.90;;;;;;;;;;5002841;28;20272;-74
2023/01/10 01:12:01;;;;;;;1999.90;999.90;;;;;;;;;;5003558;28;20238;-76
2023/01/10 01:14:29;;;;;;;1999.90;999.90;;;;;;;;;;5001165;28;20709;-75
2023/01/10 01:16:57;;;;;;;1999.90;999.90;;;;;;;;;;5003369;28;20629;-75
2023/01/10 01:19:27;;;;;;;1999.90;999.90;;;;;;;;;;5005031;28;20249;-76
2023/01/10 01:21:55;;;;;;;1999.90;999.90;;;;;;;;;;5005102;28;20288;-74
2023/01/10 01:24:23;;;;;;;1999.90;999.90;;;;;;;;;;4996221;28;20230;-75
2023/01/10 01:26:51;;;;;;;1999.90;999.90;;;;;;;;;;4997771;28;20716;-74
2023/01/10 01:29:19;;;;;;;1999.90;999.90;;;;;;;;;;4998714;28;21015;-74
2023/01/10 01:31:47;;;;;;;1999.90;999.90;;;;;;;;;;5001655;28;20238;-75
2023/01/10 01:34:15;;;;;;;1999.90;999.90;;;;;;;;;;4999666;28;20300;-78
2023/01/10 01:36:44;;;;;;;1999.90;999.90;;;;;;;;;;5002971;28;20246;-74
2023/01/10 01:39:12;;;;;;;1999.90;999.90;;;;;;;;;;4981088;28;20241;-73
2023/01/10 01:41:59;;;;;;;1999.90;999.90;;;;;;;;;;4982162;28;21431;-73
2023/01/10 01:44:30;;;;;;;1999.90;999.90;;;;;;;;;;4985072;28;20237;-73
2023/01/10 01:47:01;;;;;;;1999.90;999.90;;;;;;;;;;5020196;28;20234;-74
2023/01/10 01:49:30;;;;;;;1999.90;999.90;;;;;;;;;;4999375;28;20229;-75
2023/01/10 01:52:02;;;;;;;1999.90;999.90;;;;;;;;;;5003312;28;20312;-73
2023/01/10 01:54:31;;;;;;;1999.90;999.90;;;;;;;;;;5002861;28;20260;-73
2023/01/10 01:57:02;;;;;;;1999.90;999.90;;;;;;;;;;4998542;28;20241;-73
2023/01/10 01:59:31;;;;;;;1999.90;999.90;;;;;;;;;;5015347;28;20308;-75
2023/01/10 02:02:02;;;;;;;1999.90;999.90;;;;;;;;;;5000506;28;20238;-74
2023/01/10 02:04:34;;;;;;;1999.90;999.90;;;;;;;;;;5000617;28;20680;-77
2023/01/10 02:07:03;;;;;;;1999.90;999.90;;;;;;;;;;4999608;28;20906;-73
2023/01/10 02:09:34;;;;;;;1999.90;999.90;;;;;;;;;;4998322;28;20288;-74
2023/01/10 02:12:03;;;;;;;1999.90;999.90;;;;;;;;;;4998715;28;20234;-74
2023/01/10 02:14:31;;;;;;;1999.90;999.90;;;;;;;;;;5002964;28;20238;-75
2023/01/10 02:17:00;;;;;;;1999.90;999.90;;;;;;;;;;4981385;28;20316;-73
2023/01/10 02:19:34;;;;;;;1999.90;999.90;;;;;;;;;;4999603;28;20229;-74
2023/01/10 02:22:18;;;;;;;1999.90;999.90;;;;;;;;;;5001798;28;20229;-72
2023/01/10 02:25:02;;;;;;;1999.90;999.90;;;;;;;;;;5001841;28;20234;-74
2023/01/10 02:27:37;;;;;;;1999.90;999.90;;;;;;;;;;4999721;28;20225;-72
2023/01/10 02:30:29;;;;;;;1999.90;999.90;;;;;;;;;;4999564;28;21030;-73
2023/01/10 02:33:00;;;;;;;1999.90;999.90;;;;;;;;;;4982843;28;20533;-76
2023/01/10 02:35:48;;;;;;;1999.90;999.90;;;;;;;;;;4979062;28;20427;-75
2023/01/10 02:38:19;;;;;;;1999.90;999.90;;;;;;;;;;4996315;28;20307;-74
2023/01/10 02:40:51;;;;;;;1999.90;999.90;;;;;;;;;;4994894;28;20732;-75
2023/01/10 02:43:21;;;;;;;1999.90;999.90;;;;;;;;;;4999038;28;20707;-76
2023/01/10 02:45:54;;;;;;;1999.90;999.90;;;;;;;;;;4982447;28;20321;-76
2023/01/10 02:48:24;;;;;;;1999.90;999.90;;;;;;;;;;5002310;28;20292;-75
2023/01/10 02:50:54;;;;;;;1999.90;999.90;;;;;;;;;;5004209;28;20244;-76
2023/01/10 02:53:24;;;;;;;1999.90;999.90;;;;;;;;;;5002971;28;20241;-75
2023/01/10 02:56:10;;;;;;;1999.90;999.90;;;;;;;;;;5019760;22;20230;-70
2023/01/10 02:58:43;;;;;;;1999.90;999.90;;;;;;;;;;5001352;28;20738;-70
2023/01/10 03:01:14;;;;;;;1999.90;999.90;;;;;;;;;;4998156;28;20741;-70
2023/01/10 03:03:47;;;;;;;1999.90;999.90;;;;;;;;;;5013803;28;20238;-70
2023/01/10 03:06:21;;;;;;;1999.90;999.90;;;;;;;;;;4997517;28;20253;-71
2023/01/10 03:08:51;;;;;;;1999.90;999.90;;;;;;;;;;4996808;28;20229;-70
2023/01/10 03:11:38;;;;;;;1999.90;999.90;;;;;;;;;;4999774;28;20337;-70
2023/01/10 03:14:10;;;;;;;1999.90;999.90;;;;;;;;;;5002421;28;20248;-70
2023/01/10 03:16:39;;;;;;;1999.90;999.90;;;;;;;;;;5000642;28;20230;-70
2023/01/10 03:19:10;;;;;;;1999.90;999.90;;;;;;;;;;5001111;28;20312;-70
2023/01/10 03:21:39;;;;;;;1999.90;999.90;;;;;;;;;;4999849;28;20242;-69
2023/01/10 03:24:10;;;;;;;1999.90;999.90;;;;;;;;;;4986847;28;21142;-71
2023/01/10 03:26:42;;;;;;;1999.90;999.90;;;;;;;;;;5000814;28;20324;-70
2023/01/10 03:29:13;;;;;;;1999.90;999.90;;;;;;;;;;4978819;28;20230;-70
2023/01/10 03:31:45;;;;;;;1999.90;999.90;;;;;;;;;;4999358;28;20337;-70
2023/01/10 03:34:14;;;;;;;1999.90;999.90;;;;;;;;;;5002140;28;20237;-70
2023/01/10 03:36:50;;;;;;;1999.90;999.90;;;;;;;;;;5011627;28;20234;-70
2023/01/10 03:39:20;;;;;;;1999.90;999.90;;;;;;;;;;4999782;28;20733;-70
2023/01/10 03:41:50;;;;;;;1999.90;999.90;;;;;;;;;;4997706;28;20411;-70
2023/01/10 03:47:08;;;;;;;1999.90;999.90;;;;;;;;;;4995474;28;20321;-70
2023/01/10 03:49:38;;;;;;;1999.90;999.90;;;;;;;;;;4999839;28;20260;-70
2023/01/10 03:52:08;;;;;;;1999.90;999.90;;;;;;;;;;4999630;28;20833;-70
2023/01/10 03:54:36;;;;;;;1999.90;999.90;;;;;;;;;;5017946;28;20244;-70
2023/01/10 03:57:05;;;;;;;1999.90;999.90;;;;;;;;;;4997857;28;20230;-70
2023/01/10 03:59:33;;;;;;;1999.90;999.90;;;;;;;;;;5015136;28;20264;-70
2023/01/10 04:02:01;;;;;;;1999.90;999.90;;;;;;;;;;4998723;28;20238;-70
2023/01/10 04:04:31;;;;;;;1999.90;999.90;;;;;;;;;;5001262;28;21378;-70
2023/01/10 04:07:00;;;;;;;1999.90;999.90;;;;;;;;;;4996110;28;20724;-71
2023/01/10 04:09:28;;;;;;;1999.90;999.90;;;;;;;;;;4983747;28;21007;-71
2023/01/10 04:11:56;;;;;;;1999.90;999.90;;;;;;;;;;4999569;28;20240;-70
2023/01/10 04:14:24;;;;;;;1999.90;999.90;;;;;;;;;;4996104;28;20249;-70
2023/01/10 04:16:51;;;;;;;1999.90;999.90;;;;;;;;;;5002220;28;20236;-72
2023/01/10 04:19:19;;;;;;;1999.90;999.90;;;;;;;;;;4998207;28;20774;-70
2023/01/10 04:21:47;;;;;;;1999.90;999.90;;;;;;;;;;4998610;28;20729;-70
2023/01/10 04:24:16;;;;;;;1999.90;999.90;;;;;;;;;;5000772;28;20238;-70
2023/01/10 04:26:44;;;;;;;1999.90;999.90;;;;;;;;;;5002247;28;20236;-70
2023/01/10 04:29:12;;;;;;;1999.90;999.90;;;;;;;;;;4995903;28;20237;-70
2023/01/10 04:31:40;;;;;;;1999.90;999.90;;;;;;;;;;4999473;28;20240;-71
2023/01/10 04:34:08;;;;;;;1999.90;999.90;;;;;;;;;;5000002;28;20230;-70
2023/01/10 04:36:36;;;;;;;1999.90;999.90;;;;;;;;;;4998752;28;20222;-70
2023/01/10 04:39:05;;;;;;;1999.90;999.90;;;;;;;;;;5012264;28;20240;-71
2023/01/10 04:41:34;;;;;;;1999.90;999.90;;;;;;;;;;4996669;28;21412;-70
2023/01/10 04:44:02;;;;;;;1999.90;999.90;;;;;;;;;;5015875;28;20918;-70
2023/01/10 04:46:30;;;;;;;1999.90;999.90;;;;;;;;;;4996485;28;20337;-69
2023/01/10 04:48:58;;;;;;;1999.90;999.90;;;;;;;;;;5014598;28;20325;-70
2023/01/10 04:51:26;;;;;;;1999.90;999.90;;;;;;;;;;4999243;28;20317;-70
2023/01/10 04:53:55;;;;;;;1999.90;999.90;;;;;;;;;;5000976;28;20265;-70
2023/01/10 04:56:23;;;;;;;1999.90;999.90;;;;;;;;;;5000808;28;20758;-70
2023/01/10 04:58:53;;;;;;;1999.90;999.90;;;;;;;;;;4998806;28;20281;-71
2023/01/10 05:01:23;;;;;;;1999.90;999.90;;;;;;;;;;4994651;28;20230;-70
2023/01/10 05:03:52;;;;;;;1999.90;999.90;;;;;;;;;;4998587;28;20236;-71
2023/01/10 05:06:20;;;;;;;1999.90;999.90;;;;;;;;;;4997724;28;20237;-70
2023/01/10 05:08:48;;;;;;;1999.90;999.90;;;;;;;;;;4998041;28;20365;-70
2023/01/10 05:11:16;;;;;;;1999.90;999.90;;;;;;;;;;5001773;28;20320;-70
2023/01/10 05:13:44;;;;;;;1999.90;999.90;;;;;;;;;;4984517;28;20752;-70
2023/01/10 05:16:16;;;;;;;1999.90;999.90;;;;;;;;;;5001652;28;20362;-70
2023/01/10 05:18:44;;;;;;;1999.90;999.90;;;;;;;;;;5003531;28;20352;-70
2023/01/10 05:21:13;;;;;;;1999.90;999.90;;;;;;;;;;5001375;28;20238;-70
2023/01/10 05:23:41;;;;;;;1999.90;999.90;;;;;;;;;;5002375;28;20237;-69
2023/01/10 05:26:09;;;;;;;1999.90;999.90;;;;;;;;;;5005647;28;20230;-70
2023/01/10 05:28:38;;;;;;;1999.90;999.90;;;;;;;;;;5002134;28;20324;-70
2023/01/10 05:31:06;;;;;;;1999.90;999.90;;;;;;;;;;4999713;28;20336;-70
2023/01/10 05:33:36;;;;;;;1999.90;999.90;;;;;;;;;;4997157;28;20230;-70
2023/01/10 05:36:04;;;;;;;1999.90;999.90;;;;;;;;;;4998785;28;21017;-70
2023/01/10 05:38:32;;;;;;;1999.90;999.90;;;;;;;;;;4999388;28;20238;-70
2023/01/10 05:41:01;;;;;;;1999.90;999.90;;;;;;;;;;4999861;28;20237;-70
2023/01/10 05:43:28;;;;;;;1999.90;999.90;;;;;;;;;;5001827;28;20241;-70
2023/01/10 05:45:56;;;;;;;1999.90;999.90;;;;;;;;;;4982511;28;20233;-71
2023/01/10 05:48:25;;;;;;;1999.90;999.90;;;;;;;;;;5003829;28;20230;-69
2023/01/10 05:50:54;;;;;;;1999.90;999.90;;;;;;;;;;5001091;28;20242;-70
2023/01/10 05:53:22;;;;;;;1999.90;999.90;;;;;;;;;;4992691;28;20317;-70
2023/01/10 05:55:54;;;;;;;1999.90;999.90;;;;;;;;;;5003195;28;20248;-70
2023/01/10 05:58:22;;;;;;;1999.90;999.90;;;;;;;;;;5004321;28;20281;-71
2023/01/10 06:00:50;;;;;;;1999.90;999.90;;;;;;;;;;5001072;28;20738;-70
2023/01/10 06:03:18;;;;;;;1999.90;999.90;;;;;;;;;;5002301;28;20714;-70
2023/01/10 06:05:47;;;;;;;1999.90;999.90;;;;;;;;;;4994906;28;20225;-71
2023/01/10 06:08:17;;;;;;;1999.90;999.90;;;;;;;;;;4997287;28;20241;-70
2023/01/10 06:10:45;;;;;;;1999.90;999.90;;;;;;;;;;4993672;28;20288;-71
2023/01/10 06:13:13;;;;;;;1999.90;999.90;;;;;;;;;;4999058;28;20333;-70
2023/01/10 06:15:41;;;;;;;1999.90;999.90;;;;;;;;;;4998468;28;20892;-69
2023/01/10 06:18:09;;;;;;;1999.90;999.90;;;;;;;;;;4996790;28;20230;-68
2023/01/10 06:20:39;;;;;;;1999.90;999.90;;;;;;;;;;4996664;28;20768;-69
2023/01/10 06:23:07;;;;;;;1999.90;999.90;;;;;;;;;;4983182;28;20253;-71
2023/01/10 06:25:39;;;;;;;1999.90;999.90;;;;;;;;;;4993750;28;20238;-71
2023/01/10 06:28:07;;;;;;;1999.90;999.90;;;;;;;;;;5003247;28;20229;-71
2023/01/10 06:30:35;;;;;;;1999.90;999.90;;;;;;;;;;4998475;28;20325;-71
2023/01/10 06:33:04;;;;;;;1999.90;999.90;;;;;;;;;;4999628;28;20762;-71
2023/01/10 06:35:32;;;;;;;1999.90;999.90;;;;;;;;;;4999363;28;20437;-71
2023/01/10 06:38:00;;;;;;;1999.90;999.90;;;;;;;;;;4999969;28;20252;-71
2023/01/10 06:40:29;;;;;;;1999.90;999.90;;;;;;;;;;5000152;28;20234;-71
2023/01/10 06:42:58;;;;;;;1999.90;999.90;;;;;;;;;;4999047;28;20260;-71
2023/01/10 06:45:26;;;;;;;1999.90;999.90;;;;;;;;;;4998450;28;20277;-71
2023/01/10 06:47:54;;;;;;;1999.90;999.90;;;;;;;;;;4981111;28;20685;-71
2023/01/10 06:50:22;;;;;;;1999.90;999.90;;;;;;;;;;4996798;28;21537;-71
2023/01/10 06:52:55;;;;;;;1999.90;999.90;;;;;;;;;;5000688;28;20240;-71
2023/01/10 06:55:23;;;;;;;1999.90;999.90;;;;;;;;;;4996216;28;20648;-71
2023/01/10 06:57:54;;;;;;;1999.90;999.90;;;;;;;;;;4990511;28;20245;-71
2023/01/10 07:00:25;;;;;;;1999.90;999.90;;;;;;;;;;5000792;28;20268;-71
2023/01/10 07:02:57;;;;;;;1999.90;999.90;;;;;;;;;;5014726;28;20317;-70
2023/01/10 07:05:25;;;;;;;1999.90;999.90;;;;;;;;;;4998113;28;20230;-70
2023/01/10 07:07:53;;;;;;;1999.90;999.90;;;;;;;;;;4997269;28;20241;-70
2023/01/10 07:10:21;;;;;;;1999.90;999.90;;;;;;;;;;4998641;28;20232;-69
2023/01/10 07:12:49;;;;;;;1999.90;999.90;;;;;;;;;;4998363;28;20242;-69
2023/01/10 07:15:17;;;;;;;1999.90;999.90;;;;;;;;;;4991417;28;20280;-68
2023/01/10 07:17:46;;;;;;;1999.90;999.90;;;;;;;;;;4996663;28;20685;-69
2023/01/10 07:20:14;;;;;;;1999.90;999.90;;;;;;;;;;5000668;28;20229;-68
2023/01/10 07:22:42;;;;;;;1999.90;999.90;;;;;;;;;;4997756;28;20260;-69
2023/01/10 07:25:10;;;;;;;1999.90;999.90;;;;;;;;;;4994548;28;20264;-68
2023/01/10 07:27:42;;;;;;;1999.90;999.90;;;;;;;;;;5000400;28;21179;-69
2023/01/10 07:30:10;;;;;;;1999.90;999.90;;;;;;;;;;5017690;28;20236;-69
2023/01/10 07:32:38;;;;;;;1999.90;999.90;;;;;;;;;;5015582;28;20295;-68
2023/01/10 07:35:08;;;;;;;1999.90;999.90;;;;;;;;;;4995353;28;20258;-69
2023/01/10 07:37:36;;;;;;;1999.90;999.90;;;;;;;;;;4998251;28;20307;-71
2023/01/10 07:40:05;;;;;;;1999.90;999.90;;;;;;;;;;5003132;28;20296;-71
2023/01/10 07:42:32;;;;;;;1999.90;999.90;;;;;;;;;;4979934;28;20317;-71
2023/01/10 07:45:00;;;;;;;1999.90;999.90;;;;;;;;;;4995898;28;20240;-70
2023/01/10 07:47:28;;;;;;;1999.90;999.90;;;;;;;;;;4989879;28;20321;-71
2023/01/10 07:49:56;;;;;;;1999.90;999.90;;;;;;;;;;5002464;28;20324;-71
2023/01/10 07:52:25;;;;;;;1999.90;999.90;;;;;;;;;;5001700;28;20371;-70
2023/01/10 07:54:53;;;;;;;1999.90;999.90;;;;;;;;;;4996801;28;20790;-70
2023/01/10 07:57:21;;;;;;;1999.90;999.90;;;;;;;;;;4988824;28;20346;-70
2023/01/10 07:59:49;;;;;;;1999.90;999.90;;;;;;;;;;4998313;28;20788;-70
2023/01/10 08:02:18;;;;;;;1999.90;999.90;;;;;;;;;;4999225;28;20237;-70
2023/01/10 08:04:46;;;;;;;1999.90;999.90;;;;;;;;;;4998199;28;21412;-70
2023/01/10 08:07:14;;;;;;;1999.90;999.90;;;;;;;;;;4993883;28;20741;-68
2023/01/10 08:09:43;;;;;;;1999.90;999.90;;;;;;;;;;4983532;28;20824;-69
2023/01/10 08:12:11;;;;;;;1999.90;999.90;;;;;;;;;;5000777;28;20664;-68
2023/01/10 08:14:39;;;;;;;1999.90;999.90;;;;;;;;;;4976147;28;20229;-68
2023/01/10 08:17:07;;;;;;;1999.90;999.90;;;;;;;;;;5000616;28;20738;-69
2023/01/10 08:19:35;;;;;;;1999.90;999.90;;;;;;;;;;5001810;28;20329;-69
2023/01/10 08:22:03;;;;;;;1999.90;999.90;;;;;;;;;;4999317;28;20251;-69
2023/01/10 08:24:31;;;;;;;1999.90;999.90;;;;;;;;;;5003103;28;20738;-68
2023/01/10 08:27:00;;;;;;;1999.90;999.90;;;;;;;;;;5003464;28;20230;-68
2023/01/10 08:29:29;;;;;;;1999.90;999.90;;;;;;;;;;5004852;28;21196;-70
2023/01/10 08:31:57;;;;;;;1999.90;999.90;;;;;;;;;;4986938;28;20295;-70
2023/01/10 08:34:25;;;;;;;1999.90;999.90;;;;;;;;;;5019010;28;20606;-68
2023/01/10 08:36:53;;;;;;;1999.90;999.90;;;;;;;;;;5018918;28;20241;-70
2023/01/10 08:39:21;;;;;;;1999.90;999.90;;;;;;;;;;4989264;28;21077;-71
2023/01/10 08:41:50;;;;;;;1999.90;999.90;;;;;;;;;;5007049;28;20244;-70
2023/01/10 08:44:19;;;;;;;1999.90;999.90;;;;;;;;;;5006401;28;20316;-71
2023/01/10 08:46:48;;;;;;;1999.90;999.90;;;;;;;;;;5006664;28;20377;-70
2023/01/10 08:49:16;;;;;;;1999.90;999.90;;;;;;;;;;5007469;28;20917;-71
2023/01/10 08:51:44;;;;;;;1999.90;999.90;;;;;;;;;;5007163;28;20237;-70
2023/01/10 08:54:12;;;;;;;1999.90;999.90;;;;;;;;;;5008112;28;20288;-70
2023/01/10 08:56:40;;;;;;;1999.90;999.90;;;;;;;;;;5005968;28;20245;-71
2023/01/10 08:59:08;;;;;;;1999.90;999.90;;;;;;;;;;4988971;28;20236;-70
2023/01/10 09:01:37;;;;;;;1999.90;999.90;;;;;;;;;;5022519;28;20253;-71
2023/01/10 09:04:05;;;;;;;1999.90;999.90;;;;;;;;;;5008236;28;20233;-70
2023/01/10 09:06:33;;;;;;;1999.90;999.90;;;;;;;;;;5005870;28;20236;-70
2023/01/10 09:09:01;;;;;;;1999.90;999.90;;;;;;;;;;5021510;28;20238;-72
2023/01/10 09:11:29;;;;;;;1999.90;999.90;;;;;;;;;;4987836;28;20285;-70
2023/01/10 09:13:57;;;;;;;1999.90;999.90;;;;;;;;;;5005477;28;21528;-70
2023/01/10 09:16:26;;;;;;;1999.90;999.90;;;;;;;;;;5004313;28;20281;-71
2023/01/10 09:18:55;;;;;;;1999.90;999.90;;;;;;;;;;5021359;28;20710;-71
2023/01/10 09:21:23;;;;;;;1999.90;999.90;;;;;;;;;;5003262;28;20237;-71
2023/01/10 09:23:51;;;;;;;1999.90;999.90;;;;;;;;;;5005325;28;20357;-71
2023/01/10 09:26:19;;;;;;;1999.90;999.90;;;;;;;;;;5005569;28;20314;-71
2023/01/10 09:28:48;;;;;;;1999.90;999.90;;;;;;;;;;5006943;28;20258;-70
2023/01/10 09:31:16;;;;;;;1999.90;999.90;;;;;;;;;;5004289;28;20607;-71
2023/01/10 09:33:45;;;;;;;1999.90;999.90;;;;;;;;;;5002552;28;20230;-71
2023/01/10 09:36:16;;;;;;;1999.90;999.90;;;;;;;;;;5001073;28;20312;-70
2023/01/10 09:38:44;;;;;;;1999.90;999.90;;;;;;;;;;5007002;28;20348;-71
2023/01/10 09:41:17;;;;;;;1999.90;999.90;;;;;;;;;;5006871;28;20230;-70
2023/01/10 09:43:51;;;;;;;1999.90;999.90;;;;;;;;;;5002790;28;21087;-71
2023/01/10 09:46:22;;;;;;;1999.90;999.90;;;;;;;;;;5002890;28;20333;-71
2023/01/10 09:48:55;;;;;;;1999.90;999.90;;;;;;;;;;5004847;28;20719;-71
2023/01/10 09:51:33;;;;;;;1999.90;999.90;;;;;;;;;;5005566;28;20316;-70
2023/01/10 09:54:04;;;;;;;1999.90;999.90;;;;;;;;;;5005461;28;20237;-70
2023/01/10 09:56:40;;;;;;;1999.90;999.90;;;;;;;;;;5001127;28;20317;-71
2023/01/10 09:59:12;;;;;;;1999.90;999.90;;;;;;;;;;5006958;28;20272;-71
2023/01/10 10:01:40;;;;;;;1999.90;999.90;;;;;;;;;;5022535;28;20269;-70
2023/01/10 10:04:15;;;;;;;1999.90;999.90;;;;;;;;;;5000455;28;20226;-70
2023/01/10 10:06:48;;;;;;;1999.90;999.90;;;;;;;;;;5002635;28;20229;-70
2023/01/10 10:09:17;;;;;;;1999.90;999.90;;;;;;;;;;4996307;28;20233;-70
2023/01/10 10:11:50;;;;;;;1999.90;999.90;;;;;;;;;;4999269;28;20242;-72
2023/01/10 10:14:23;;;;;;;1999.90;999.90;;;;;;;;;;5017585;28;20234;-71
2023/01/10 10:16:57;;;;;;;1999.90;999.90;;;;;;;;;;5020805;28;20309;-71
2023/01/10 10:19:30;;;;;;;1999.90;999.90;;;;;;;;;;5006568;28;20237;-71
2023/01/10 10:22:05;;;;;;;1999.90;999.90;;;;;;;;;;5000047;28;21019;-71
2023/01/10 10:24:42;;;;;;;1999.90;999.90;;;;;;;;;;5006636;28;20305;-71
2023/01/10 10:27:16;;;;;;;1999.90;999.90;;;;;;;;;;5004282;28;20284;-71
2023/01/10 10:30:03;;;;;;;1999.90;999.90;;;;;;;;;;5004852;28;20273;-71
2023/01/10 10:32:41;;;;;;;1999.90;999.90;;;;;;;;;;5001725;28;20340;-71
2023/01/10 10:35:13;;;;;;;1999.90;999.90;;;;;;;;;;5003388;28;20253;-71
2023/01/10 10:37:45;;;;;;;1999.90;999.90;;;;;;;;;;5005074;28;20316;-71
2023/01/10 10:40:15;;;;;;;1999.90;999.90;;;;;;;;;;5005052;28;20714;-70
2023/01/10 10:42:46;;;;;;;1999.90;999.90;;;;;;;;;;5003819;28;21199;-71
2023/01/10 10:45:17;;;;;;;1999.90;999.90;;;;;;;;;;4999964;28;20304;-70
2023/01/10 10:47:48;;;;;;;1999.90;999.90;;;;;;;;;;5006043;28;20240;-71
2023/01/10 10:50:19;;;;;;;1999.90;999.90;;;;;;;;;;5005091;28;20230;-71
2023/01/10 10:52:48;;;;;;;1999.90;999.90;;;;;;;;;;5005374;28;20230;-71
2023/01/10 10:55:17;;;;;;;1999.90;999.90;;;;;;;;;;5004066;28;20237;-70
2023/01/10 10:57:46;;;;;;;1999.90;999.90;;;;;;;;;;5001941;28;21066;-71
2023/01/10 11:00:29;;;;;;;1999.90;999.90;;;;;;;;;;5004378;28;20226;-71
2023/01/10 11:03:00;;;;;;;1999.90;999.90;;;;;;;;;;5006392;28;20233;-71
2023/01/10 11:05:32;;;;;;;1999.90;999.90;;;;;;;;;;5003289;28;20293;-71
2023/01/10 11:08:04;;;;;;;1999.90;999.90;;;;;;;;;;5005860;28;20321;-71
2023/01/10 11:10:35;;;;;;;1999.90;999.90;;;;;;;;;;5004341;28;20706;-71
2023/01/10 11:13:05;;;;;;;1999.90;999.90;;;;;;;;;;4989021;28;21063;-71
2023/01/10 11:15:37;;;;;;;1999.90;999.90;;;;;;;;;;5005173;28;20710;-71
2023/01/10 11:18:06;;;;;;;1999.90;999.90;;;;;;;;;;5004989;28;20296;-71
2023/01/10 11:20:34;;;;;;;1999.90;999.90;;;;;;;;;;5005203;28;20293;-71
2023/01/10 11:23:04;;;;;;;1999.90;999.90;;;;;;;;;;5006603;28;21078;-71
2023/01/10 11:25:32;;;;;;;1999.90;999.90;;;;;;;;;;5004804;28;20745;-71
2023/01/10 11:28:01;;;;;;;1999.90;999.90;;;;;;;;;;5002877;28;20353;-71
2023/01/10 11:30:30;;;;;;;1999.90;999.90;;;;;;;;;;5002523;28;20911;-71
2023/01/10 11:33:00;;;;;;;1999.90;999.90;;;;;;;;;;5003708;28;20349;-70
2023/01/10 11:35:30;;;;;;;1999.90;999.90;;;;;;;;;;5002168;28;20281;-71
2023/01/10 11:37:59;;;;;;;1999.90;999.90;;;;;;;;;;4988715;28;20244;-70
2023/01/10 11:40:29;;;;;;;1999.90;999.90;;;;;;;;;;5006126;28;20229;-72
2023/01/10 11:42:58;;;;;;;1999.90;999.90;;;;;;;;;;5009811;28;20718;-74
2023/01/10 11:45:31;;;;;;;1999.90;999.90;;;;;;;;;;5010297;28;20308;-71
2023/01/10 11:48:07;;;;;;;1999.90;999.90;;;;;;;;;;5009592;28;20261;-71
2023/01/10 11:50:36;;;;;;;1999.90;999.90;;;;;;;;;;4991376;28;20229;-71
2023/01/10 11:53:05;;;;;;;1999.90;999.90;;;;;;;;;;5008322;28;20722;-71
2023/01/10 11:55:36;;;;;;;1999.90;999.90;;;;;;;;;;5006458;28;20237;-72
2023/01/10 11:58:06;;;;;;;1999.90;999.90;;;;;;;;;;5004147;28;21503;-71
2023/01/10 12:00:37;;;;;;;1999.90;999.90;;;;;;;;;;5006334;28;20237;-71
2023/01/10 12:03:15;;;;;;;1999.90;999.90;;;;;;;;;;5003100;28;20229;-72
2023/01/10 12:05:49;;;;;;;1999.90;999.90;;;;;;;;;;5004001;28;20229;-71
2023/01/10 12:08:23;;;;;;;1999.90;999.90;;;;;;;;;;5020662;28;20230;-71
2023/01/10 12:10:57;;;;;;;1999.90;999.90;;;;;;;;;;5020084;28;20396;-71
2023/01/10 12:13:27;;;;;;;1999.90;999.90;;;;;;;;;;5002453;28;20243;-71
2023/01/10 12:16:10;;;;;;;1999.90;999.90;;;;;;;;;;5000240;28;20233;-71
2023/01/10 12:18:38;;;;;;;1999.90;999.90;;;;;;;;;;4984591;28;20332;-71
2023/01/10 12:21:08;;;;;;;1999.90;999.90;;;;;;;;;;5009568;28;20788;-71
2023/01/10 12:23:40;;;;;;;1999.90;999.90;;;;;;;;;;5008450;28;20240;-71
2023/01/10 12:26:12;;;;;;;1999.90;999.90;;;;;;;;;;5008638;28;20280;-71
2023/01/10 12:28:42;;;;;;;1999.90;999.90;;;;;;;;;;5024577;28;20227;-71
2023/01/10 12:31:12;;;;;;;1999.90;999.90;;;;;;;;;;5008009;28;20247;-72
2023/01/10 12:33:45;;;;;;;1999.90;999.90;;;;;;;;;;5007064;28;20230;-71
2023/01/10 12:36:16;;;;;;;1999.90;999.90;;;;;;;;;;5008623;28;20733;-71
2023/01/10 12:39:05;;;;;;;1999.90;999.90;;;;;;;;;;5008722;28;20285;-72
2023/01/10 12:44:26;;;;;;;1999.90;999.90;;;;;;;;;;5008346;28;20262;-69
2023/01/10 12:46:56;;;;;;;1999.90;999.90;;;;;;;;;;4992466;28;20441;-70
2023/01/10 12:49:37;;;;;;;1999.90;999.90;;;;;;;;;;4989019;28;20237;-69
2023/01/10 12:52:08;;;;;;;1999.90;999.90;;;;;;;;;;5005542;28;20312;-69
2023/01/10 12:54:36;;;;;;;1999.90;999.90;;;;;;;;;;5005716;28;20234;-70
2023/01/10 12:57:12;;;;;;;1999.90;999.90;;;;;;;;;;5004235;28;20238;-70
2023/01/10 12:59:42;;;;;;;1999.90;999.90;;;;;;;;;;5006800;28;20328;-71
2023/01/10 13:02:14;;;;;;;1999.90;999.90;;;;;;;;;;5005094;28;20321;-70
2023/01/10 13:04:45;;;;;;;1999.90;999.90;;;;;;;;;;4988479;28;20237;-69
2023/01/10 13:07:14;;;;;;;1999.90;999.90;;;;;;;;;;5023040;28;20416;-70
2023/01/10 13:09:42;;;;;;;1999.90;999.90;;;;;;;;;;5006051;28;20694;-69
2023/01/10 13:12:16;;;;;;;1999.90;999.90;;;;;;;;;;5006976;28;20269;-71
2023/01/10 13:14:46;;;;;;;1999.90;999.90;;;;;;;;;;5006641;28;21073;-69
2023/01/10 13:17:19;;;;;;;1999.90;999.90;;;;;;;;;;5004682;28;20258;-70
2023/01/10 13:20:02;;;;;;;1999.90;999.90;;;;;;;;;;4989592;28;20249;-70
2023/01/10 13:22:34;;;;;;;1999.90;999.90;;;;;;;;;;5004485;28;20233;-70
2023/01/10 13:25:03;;;;;;;1999.90;999.90;;;;;;;;;;5004651;28;20868;-69
2023/01/10 13:27:33;;;;;;;1999.90;999.90;;;;;;;;;;5005861;28;20255;-70
2023/01/10 13:30:02;;;;;;;1999.90;999.90;;;;;;;;;;5005371;28;20309;-69
2023/01/10 13:32:32;;;;;;;1999.90;999.90;;;;;;;;;;5004225;28;20238;-69
2023/01/10 13:35:10;;;;;;;1999.90;999.90;;;;;;;;;;4989837;28;20292;-70
2023/01/10 13:37:39;;;;;;;1999.90;999.90;;;;;;;;;;5003026;28;20757;-69
2023/01/10 13:40:08;;;;;;;1999.90;999.90;;;;;;;;;;5003887;28;20246;-69
2023/01/10 13:45:24;;;;;;;1999.90;999.90;;;;;;;;;;5003930;28;20233;-70
2023/01/10 13:48:02;;;;;;;1999.90;999.90;;;;;;;;;;5003225;28;20257;-69
2023/01/10 13:50:50;;;;;;;1999.90;999.90;;;;;;;;;;5003058;28;20226;-71
2023/01/10 13:53:33;;;;;;;1999.90;999.90;;;;;;;;;;5004829;28;20233;-71
2023/01/10 13:56:01;;;;;;;1999.90;999.90;;;;;;;;;;4985226;28;20234;-71
2023/01/10 14:04:19;;;;;;;1999.90;999.90;;;;;;;;;;4999733;28;20230;-69
2023/01/10 14:06:52;;;;;;;1999.90;999.90;;;;;;;;;;5006610;28;20241;-69
2023/01/10 14:09:43;;;;;;;1999.90;999.90;;;;;;;;;;5001966;28;20214;-69
2023/01/10 14:12:19;;;;;;;1999.90;999.90;;;;;;;;;;4983586;28;20246;-69
2023/01/10 14:14:54;;;;;;;1999.90;999.90;;;;;;;;;;5005124;28;20233;-69
2023/01/10 14:17:23;;;;;;;1999.90;999.90;;;;;;;;;;5001651;28;20225;-68
2023/01/10 14:19:58;;;;;;;1999.90;999.90;;;;;;;;;;5001430;28;20241;-69